Time;durP1;ratioP1;P1;durP2;ratioP2;P2;SDS_P1;SDS_P2;PMS_P1;PMS_P2;Temp;Humidity;BMP_temperature;BMP_pressure;BME280_temperature;BME280_humidity;BME280_pressure;Samples;Min_cycle;Max_cycle;Signal;HPM_P1;HPM_P2
2021/05/03 00:00:07;;;;;;;1.40;1.30;;;18.00;35.00;;;;;;8394756;28;20028;-58
2021/05/03 00:04:08;;;;;;;1.40;1.30;;;18.00;35.00;;;;;;8392109;28;20045;-59
2021/05/03 00:08:08;;;;;;;1.83;1.30;;;18.00;35.00;;;;;;8392065;28;20037;-58
2021/05/03 00:12:09;;;;;;;1.63;1.50;;;18.00;35.00;;;;;;8389979;28;20032;-57
2021/05/03 00:16:09;;;;;;;1.63;1.53;;;18.00;35.10;;;;;;8396062;28;20048;-58
2021/05/03 00:20:11;;;;;;;1.40;1.30;;;18.00;35.00;;;;;;8390977;28;20108;-58
2021/05/03 00:24:12;;;;;;;1.40;1.30;;;18.00;35.00;;;;;;8388923;28;20474;-58
2021/05/03 00:28:13;;;;;;;1.58;1.30;;;18.00;35.10;;;;;;8391717;28;20599;-58
2021/05/03 00:32:14;;;;;;;1.33;1.23;;;18.00;35.10;;;;;;8395793;28;20043;-58
2021/05/03 00:36:14;;;;;;;1.63;1.43;;;18.00;35.00;;;;;;8389456;28;20044;-58
2021/05/03 00:40:15;;;;;;;2.73;1.30;;;18.00;35.10;;;;;;8391134;28;20492;-58
2021/05/03 00:44:15;;;;;;;1.63;1.40;;;18.00;35.10;;;;;;8391097;28;20031;-58
2021/05/03 00:48:16;;;;;;;2.13;1.13;;;18.00;35.10;;;;;;8387816;28;20081;-58
2021/05/03 00:52:17;;;;;;;1.60;1.20;;;17.90;35.00;;;;;;8395716;28;20032;-58
2021/05/03 00:56:17;;;;;;;1.30;1.20;;;18.00;35.10;;;;;;8390932;28;20045;-58
2021/05/03 01:00:18;;;;;;;1.70;1.30;;;17.90;35.00;;;;;;8389441;28;20086;-58
2021/05/03 01:04:18;;;;;;;1.23;1.13;;;17.90;35.00;;;;;;8390915;28;20020;-58
2021/05/03 01:08:19;;;;;;;1.37;1.20;;;17.90;35.00;;;;;;8395201;28;20040;-58
2021/05/03 01:12:19;;;;;;;1.37;1.27;;;17.90;35.10;;;;;;8389020;28;20087;-57
2021/05/03 01:16:20;;;;;;;1.40;1.30;;;17.90;35.10;;;;;;8390779;28;20044;-58
2021/05/03 01:20:22;;;;;;;1.53;1.30;;;17.90;35.00;;;;;;8390894;28;20170;-58
2021/05/03 01:24:23;;;;;;;1.20;1.10;;;17.90;35.10;;;;;;8391087;28;20032;-58
2021/05/03 01:28:24;;;;;;;3.37;1.13;;;17.90;35.00;;;;;;8393251;28;20037;-58
2021/05/03 01:32:24;;;;;;;1.42;1.25;;;17.90;35.00;;;;;;8390535;28;20033;-58
2021/05/03 01:36:25;;;;;;;1.50;1.30;;;17.90;35.00;;;;;;8388229;28;20063;-57
2021/05/03 01:40:28;;;;;;;1.37;1.27;;;17.90;35.00;;;;;;8390077;28;20033;-58
2021/05/03 01:44:29;;;;;;;1.50;1.40;;;17.90;35.00;;;;;;8394694;28;20032;-58
2021/05/03 01:48:31;;;;;;;1.27;1.17;;;17.90;35.00;;;;;;8388443;28;20127;-58
2021/05/03 01:52:32;;;;;;;1.05;1.00;;;17.90;35.00;;;;;;8390065;28;20036;-58
2021/05/03 01:56:34;;;;;;;1.67;1.33;;;17.90;35.00;;;;;;8389943;28;20528;-58
2021/05/03 02:00:35;;;;;;;1.13;1.08;;;17.80;34.90;;;;;;8394863;28;20044;-58
2021/05/03 02:04:36;;;;;;;1.30;1.15;;;17.90;35.00;;;;;;8395870;28;20036;-57
2021/05/03 02:08:36;;;;;;;1.47;1.37;;;17.80;34.90;;;;;;8395743;28;20045;-58
2021/05/03 02:12:39;;;;;;;1.20;1.10;;;17.80;34.90;;;;;;8394204;28;20081;-58
2021/05/03 02:16:39;;;;;;;2.45;1.15;;;17.80;34.90;;;;;;8395048;28;20044;-57
2021/05/03 02:20:40;;;;;;;1.40;1.20;;;17.80;34.80;;;;;;8399963;28;20131;-57
2021/05/03 02:24:40;;;;;;;1.47;1.37;;;17.80;34.80;;;;;;8393642;28;20041;-58
2021/05/03 02:28:41;;;;;;;1.20;1.10;;;17.80;34.90;;;;;;8379993;28;20477;-58
2021/05/03 02:32:41;;;;;;;1.30;1.20;;;17.80;34.80;;;;;;8368001;28;20115;-56
2021/05/03 02:36:42;;;;;;;1.37;1.17;;;17.80;34.90;;;;;;8397480;28;20048;-57
2021/05/03 02:40:43;;;;;;;1.20;1.10;;;17.80;34.80;;;;;;8394760;28;20089;-57
2021/05/03 02:44:43;;;;;;;1.40;1.30;;;17.80;34.80;;;;;;8394938;28;20032;-57
2021/05/03 02:48:44;;;;;;;1.43;1.20;;;17.80;34.80;;;;;;8392589;28;20044;-57
2021/05/03 02:52:45;;;;;;;1.40;1.30;;;17.70;34.80;;;;;;8399075;28;20263;-56
2021/05/03 02:56:45;;;;;;;1.47;1.33;;;17.70;34.70;;;;;;8395211;28;20060;-56
2021/05/03 03:00:46;;;;;;;1.30;1.20;;;17.70;34.80;;;;;;8392487;28;20393;-57
2021/05/03 03:04:46;;;;;;;1.30;1.20;;;17.70;34.70;;;;;;8393927;28;20082;-57
2021/05/03 03:08:47;;;;;;;1.23;1.13;;;17.70;34.80;;;;;;8393932;28;20041;-57
2021/05/03 03:12:49;;;;;;;1.67;1.37;;;17.70;34.70;;;;;;8395687;28;20496;-58
2021/05/03 03:16:49;;;;;;;;;;;17.70;34.70;;;;;;8394141;28;20451;-57
2021/05/03 03:20:50;;;;;;;1.15;1.10;;;17.70;34.70;;;;;;8393580;28;19965;-58
2021/05/03 03:24:51;;;;;;;2.20;1.50;;;17.70;34.70;;;;;;8391423;28;20032;-57
2021/05/03 03:28:52;;;;;;;1.47;1.30;;;17.70;34.70;;;;;;8397627;28;20094;-58
2021/05/03 03:32:52;;;;;;;2.30;1.33;;;17.70;34.70;;;;;;8393089;28;20040;-58
2021/05/03 03:36:53;;;;;;;1.57;1.37;;;17.70;34.70;;;;;;8391258;28;20064;-58
2021/05/03 03:40:53;;;;;;;1.30;1.20;;;17.70;34.70;;;;;;8393228;28;20037;-58
2021/05/03 03:44:54;;;;;;;2.27;1.37;;;17.70;34.70;;;;;;8392568;28;20490;-58
2021/05/03 03:48:54;;;;;;;1.40;1.30;;;17.70;34.70;;;;;;8362496;28;20033;-58
2021/05/03 03:52:55;;;;;;;2.00;1.30;;;17.70;34.60;;;;;;8360359;28;20045;-58
2021/05/03 03:56:55;;;;;;;1.20;1.10;;;17.70;34.60;;;;;;8373925;28;20135;-59
2021/05/03 04:00:56;;;;;;;2.43;1.23;;;17.70;34.70;;;;;;8390647;28;20401;-58
2021/05/03 04:05:10;;;;;;;2.67;1.30;;;17.70;34.60;;;;;;8396924;28;20033;-58
2021/05/03 04:09:25;;;;;;;1.40;1.20;;;17.70;34.60;;;;;;8390127;28;20127;-59
2021/05/03 04:26:06;;;;;;;1.38;1.27;;;17.70;34.60;;;;;;8396233;28;20028;-57
2021/05/03 04:30:10;;;;;;;1.30;1.20;;;17.70;34.60;;;;;;8390010;28;20028;-59
2021/05/03 04:34:11;;;;;;;1.80;1.33;;;17.70;34.60;;;;;;8391625;28;20035;-59
2021/05/03 04:38:11;;;;;;;1.23;1.13;;;17.70;34.60;;;;;;8380545;28;20049;-57
2021/05/03 04:42:12;;;;;;;1.77;1.27;;;17.70;34.60;;;;;;8334263;28;20017;-57
2021/05/03 04:46:16;;;;;;;2.23;1.10;;;17.70;34.50;;;;;;8395254;28;20029;-59
2021/05/03 04:50:16;;;;;;;3.08;1.15;;;17.70;34.50;;;;;;8391107;28;20047;-57
2021/05/03 04:54:17;;;;;;;1.97;1.20;;;17.70;34.50;;;;;;8389265;28;20032;-59
2021/05/03 04:58:19;;;;;;;1.50;1.40;;;17.70;34.50;;;;;;8380299;28;20509;-58
2021/05/03 05:02:19;;;;;;;;;;;17.70;34.50;;;;;;8381980;28;20586;-59
2021/05/03 05:06:20;;;;;;;1.40;1.27;;;17.70;34.50;;;;;;8333442;28;19959;-58
2021/05/03 05:10:20;;;;;;;1.80;1.30;;;17.70;34.50;;;;;;8355052;28;20032;-59
2021/05/03 05:14:21;;;;;;;1.87;1.43;;;17.70;34.50;;;;;;8390822;28;20086;-57
2021/05/03 05:18:21;;;;;;;1.37;1.27;;;17.70;34.50;;;;;;8393713;28;20131;-58
2021/05/03 05:22:22;;;;;;;1.40;1.30;;;17.70;34.50;;;;;;8390857;28;20032;-59
2021/05/03 05:26:23;;;;;;;1.40;1.30;;;17.70;34.50;;;;;;8390733;28;20119;-58
2021/05/03 05:30:23;;;;;;;1.20;1.10;;;17.70;34.50;;;;;;8364096;28;20548;-59
2021/05/03 05:34:24;;;;;;;2.23;1.80;;;17.70;34.40;;;;;;8387460;28;20037;-58
2021/05/03 05:38:24;;;;;;;1.67;1.57;;;17.70;34.40;;;;;;8368433;28;20041;-59
2021/05/03 05:42:26;;;;;;;1.33;1.23;;;17.70;34.40;;;;;;8389190;28;20057;-56
2021/05/03 05:46:26;;;;;;;1.30;1.20;;;17.70;34.40;;;;;;8396254;28;20037;-58
2021/05/03 05:50:27;;;;;;;1.73;1.40;;;17.60;34.40;;;;;;8396471;28;20060;-58
2021/05/03 05:54:27;;;;;;;1.20;1.10;;;17.70;34.40;;;;;;8398934;28;20090;-58
2021/05/03 05:58:31;;;;;;;1.73;1.60;;;17.70;34.30;;;;;;8396070;28;20043;-60
2021/05/03 06:02:32;;;;;;;1.42;1.33;;;17.70;34.40;;;;;;8396540;28;20029;-58
2021/05/03 06:06:32;;;;;;;1.43;1.33;;;17.70;34.40;;;;;;8393950;28;20036;-56
2021/05/03 06:10:33;;;;;;;1.90;1.60;;;17.70;34.30;;;;;;8395030;28;20040;-57
2021/05/03 06:14:33;;;;;;;1.27;1.13;;;17.60;34.30;;;;;;8400192;28;20098;-58
2021/05/03 06:18:34;;;;;;;1.57;1.43;;;17.70;34.30;;;;;;8370353;28;20095;-57
2021/05/03 06:22:36;;;;;;;1.47;1.37;;;17.70;34.40;;;;;;8376909;28;20397;-59
2021/05/03 06:26:36;;;;;;;1.52;1.40;;;17.70;34.40;;;;;;8395290;28;20366;-59
2021/05/03 06:30:38;;;;;;;3.33;1.90;;;17.70;34.30;;;;;;8397815;28;20044;-58
2021/05/03 06:34:38;;;;;;;1.65;1.50;;;17.70;34.30;;;;;;8394988;28;20402;-57
2021/05/03 06:38:39;;;;;;;1.83;1.70;;;17.70;34.40;;;;;;8394867;28;20041;-57
2021/05/03 06:42:40;;;;;;;2.20;1.70;;;17.70;34.30;;;;;;8393281;28;20032;-57
2021/05/03 06:46:41;;;;;;;1.83;1.73;;;17.70;34.30;;;;;;8398283;28;20029;-57
2021/05/03 06:50:45;;;;;;;2.27;1.97;;;17.70;34.30;;;;;;8341195;28;20042;-58
2021/05/03 06:54:46;;;;;;;1.73;1.52;;;17.70;34.30;;;;;;8355964;28;20482;-57
2021/05/03 06:58:46;;;;;;;2.20;1.87;;;17.70;34.30;;;;;;8394423;28;20230;-58
2021/05/03 07:02:47;;;;;;;2.13;1.97;;;17.70;34.30;;;;;;8394268;28;20543;-57
2021/05/03 07:06:47;;;;;;;1.70;1.57;;;17.70;34.30;;;;;;8396773;28;20032;-57
2021/05/03 07:10:48;;;;;;;1.93;1.83;;;17.70;34.30;;;;;;8394070;28;20114;-58
2021/05/03 07:14:49;;;;;;;1.80;1.70;;;17.70;34.30;;;;;;8393800;28;20041;-58
2021/05/03 07:18:50;;;;;;;1.73;1.63;;;17.70;34.30;;;;;;8392227;28;20068;-59
2021/05/03 07:22:50;;;;;;;1.93;1.63;;;17.70;34.30;;;;;;8398331;28;20457;-58
2021/05/03 07:26:51;;;;;;;3.37;1.90;;;17.70;34.30;;;;;;8393490;28;20033;-58
2021/05/03 07:30:57;;;;;;;1.65;1.55;;;17.70;34.30;;;;;;8392145;28;20039;-58
2021/05/03 07:34:58;;;;;;;1.60;1.50;;;17.80;34.40;;;;;;8393032;28;20055;-59
2021/05/03 07:38:58;;;;;;;1.70;1.60;;;17.70;34.30;;;;;;8391564;28;20119;-58
2021/05/03 07:42:59;;;;;;;1.97;1.77;;;17.80;34.40;;;;;;8394312;28;20037;-58
2021/05/03 07:46:59;;;;;;;2.10;1.90;;;17.80;34.40;;;;;;8367846;28;20513;-58
2021/05/03 07:51:00;;;;;;;1.70;1.60;;;17.80;34.40;;;;;;8357489;28;20021;-52
2021/05/03 07:55:01;;;;;;;2.07;1.87;;;17.80;34.40;;;;;;8363344;27;20399;-49
2021/05/03 07:59:01;;;;;;;2.10;1.90;;;17.80;34.40;;;;;;8395358;28;20495;-48
2021/05/03 08:03:02;;;;;;;2.03;1.80;;;17.80;34.40;;;;;;8389236;28;20036;-48
2021/05/03 08:07:03;;;;;;;2.10;1.63;;;17.80;34.30;;;;;;8373571;28;20068;-48
2021/05/03 08:11:03;;;;;;;1.70;1.60;;;17.80;34.30;;;;;;8368047;28;20075;-47
2021/05/03 08:15:12;;;;;;;2.10;1.90;;;17.90;34.30;;;;;;8394869;28;20079;-50
2021/05/03 08:19:13;;;;;;;3.80;2.05;;;17.90;34.30;;;;;;8392927;28;20039;-48
2021/05/03 08:23:19;;;;;;;1.93;1.80;;;17.90;34.30;;;;;;8391941;28;20357;-49
2021/05/03 08:27:19;;;;;;;1.52;1.42;;;17.90;34.30;;;;;;8390169;28;20051;-47
2021/05/03 08:31:20;;;;;;;2.30;2.00;;;18.00;34.30;;;;;;8391098;28;20029;-47
2021/05/03 08:35:20;;;;;;;2.80;1.63;;;18.00;34.30;;;;;;8395903;28;20094;-47
2021/05/03 08:39:23;;;;;;;2.67;2.03;;;18.00;34.30;;;;;;8389975;28;20060;-46
2021/05/03 08:43:23;;;;;;;2.00;1.52;;;18.00;34.30;;;;;;8391461;28;20032;-46
2021/05/03 08:47:27;;;;;;;1.70;1.60;;;18.00;34.30;;;;;;8391551;28;20401;-47
2021/05/03 08:55:47;;;;;;;2.08;1.77;;;18.10;34.30;;;;;;8395739;28;20102;-48
2021/05/03 08:59:48;;;;;;;2.03;1.70;;;18.10;34.30;;;;;;8367367;28;20034;-48
2021/05/03 09:03:52;;;;;;;1.70;1.60;;;18.10;34.30;;;;;;8371227;28;20119;-46
2021/05/03 09:07:52;;;;;;;2.35;1.70;;;18.10;34.20;;;;;;8386563;28;20040;-46
2021/05/03 09:12:01;;;;;;;1.73;1.63;;;18.10;34.20;;;;;;8366976;28;20052;-48
2021/05/03 09:16:21;;;;;;;2.72;1.55;;;18.20;34.20;;;;;;8393760;28;20127;-47
2021/05/03 09:20:24;;;;;;;2.28;1.50;;;18.20;34.30;;;;;;8397577;28;20040;-49
2021/05/03 09:24:28;;;;;;;1.63;1.52;;;18.20;34.20;;;;;;8383475;28;20033;-47
2021/05/03 09:28:29;;;;;;;2.10;1.90;;;18.20;34.20;;;;;;8355901;28;20044;-49
2021/05/03 09:32:30;;;;;;;;;;;18.20;34.40;;;;;;8389709;28;20056;-47
2021/05/03 09:36:31;;;;;;;1.73;1.63;;;18.20;34.20;;;;;;8395428;28;19995;-47
2021/05/03 09:40:31;;;;;;;2.00;1.60;;;18.30;34.30;;;;;;8395924;28;20101;-47
2021/05/03 09:44:32;;;;;;;2.47;1.63;;;18.30;34.20;;;;;;8397010;28;20029;-46
2021/05/03 09:48:33;;;;;;;1.83;1.73;;;18.30;34.20;;;;;;8399854;28;20032;-46
2021/05/03 09:52:34;;;;;;;3.00;1.57;;;18.30;34.20;;;;;;8366868;28;20029;-46
2021/05/03 09:56:48;;;;;;;2.42;1.70;;;18.40;34.30;;;;;;8363643;28;20495;-48
2021/05/03 10:00:54;;;;;;;1.40;1.30;;;18.40;34.20;;;;;;8361775;28;20045;-47
2021/05/03 10:05:06;;;;;;;1.80;1.70;;;18.40;34.20;;;;;;8379224;28;20079;-49
2021/05/03 10:09:07;;;;;;;2.33;1.63;;;18.40;34.20;;;;;;8398921;28;20071;-48
2021/05/03 10:13:07;;;;;;;2.37;1.40;;;18.50;34.20;;;;;;8395800;28;20093;-48
2021/05/03 10:17:10;;;;;;;1.90;1.40;;;18.50;34.20;;;;;;8377055;28;20045;-48
2021/05/03 10:21:13;;;;;;;2.13;1.70;;;18.50;34.10;;;;;;8345761;28;20504;-46
2021/05/03 10:25:17;;;;;;;1.60;1.50;;;18.50;34.00;;;;;;8399345;28;20032;-45
2021/05/03 10:29:42;;;;;;;2.03;1.70;;;18.50;34.00;;;;;;8398241;28;20123;-47
2021/05/03 10:33:42;;;;;;;2.33;1.65;;;18.60;34.00;;;;;;8393891;28;20125;-47
2021/05/03 10:37:43;;;;;;;2.30;1.80;;;18.60;34.00;;;;;;8395150;28;20052;-45
2021/05/03 10:42:11;;;;;;;1.93;1.50;;;18.60;34.00;;;;;;8394448;28;20037;-48
2021/05/03 10:50:48;;;;;;;1.70;1.60;;;18.70;33.90;;;;;;8399051;28;20033;-48
2021/05/03 10:54:52;;;;;;;2.22;1.60;;;18.70;33.80;;;;;;8393032;28;20090;-46
2021/05/03 10:58:55;;;;;;;1.83;1.70;;;18.70;33.80;;;;;;8394712;28;20029;-47
2021/05/03 11:02:56;;;;;;;1.83;1.50;;;18.70;33.80;;;;;;8394257;28;20068;-46
2021/05/03 11:06:57;;;;;;;1.90;1.48;;;18.80;33.70;;;;;;8393103;28;20025;-46
2021/05/03 11:11:08;;;;;;;1.50;1.40;;;18.80;33.60;;;;;;8365595;28;20029;-48
2021/05/03 11:15:11;;;;;;;;;;;18.80;33.60;;;;;;8385716;28;20090;-46
2021/05/03 11:23:47;;;;;;;1.75;1.40;;;18.80;33.50;;;;;;8393659;28;20365;-47
2021/05/03 11:31:50;;;;;;;1.20;1.10;;;18.90;33.50;;;;;;8397724;28;20041;-47
2021/05/03 11:40:05;;;;;;;1.70;1.20;;;18.90;33.30;;;;;;8373840;28;20091;-46
2021/05/03 11:44:27;;;;;;;1.45;1.23;;;18.90;33.20;;;;;;8386366;28;20083;-47
2021/05/03 11:48:32;;;;;;;1.40;1.30;;;18.90;33.20;;;;;;8360591;28;20037;-45
2021/05/03 11:52:36;;;;;;;1.25;1.15;;;18.90;33.20;;;;;;8395891;28;20040;-48
2021/05/03 11:56:37;;;;;;;1.45;1.30;;;18.90;33.20;;;;;;8392724;28;20412;-47
2021/05/03 12:00:38;;;;;;;1.93;1.40;;;19.00;33.20;;;;;;8391255;28;20037;-47
2021/05/03 12:04:39;;;;;;;1.73;1.40;;;19.00;33.20;;;;;;8392491;28;20074;-49
2021/05/03 12:08:40;;;;;;;2.45;1.27;;;19.00;33.10;;;;;;8397020;28;20294;-52
2021/05/03 12:12:40;;;;;;;1.70;1.37;;;19.00;33.10;;;;;;8390570;28;20041;-47
2021/05/03 12:16:42;;;;;;;1.33;1.23;;;19.00;33.00;;;;;;8391710;28;20079;-49
2021/05/03 12:20:42;;;;;;;1.40;1.30;;;19.00;33.10;;;;;;8392106;28;20040;-48
2021/05/03 12:24:44;;;;;;;1.40;1.30;;;19.00;33.60;;;;;;8394881;28;20036;-48
2021/05/03 12:28:47;;;;;;;2.17;1.48;;;19.10;33.10;;;;;;8359948;28;20068;-51
2021/05/03 12:32:48;;;;;;;1.38;1.23;;;19.10;33.10;;;;;;8381512;28;20056;-49
2021/05/03 12:37:10;;;;;;;1.60;1.37;;;19.10;33.10;;;;;;8390076;28;20051;-48
2021/05/03 12:41:24;;;;;;;1.73;1.52;;;19.10;33.00;;;;;;8391388;28;20119;-47
2021/05/03 12:45:59;;;;;;;1.33;1.23;;;19.20;33.00;;;;;;8394449;28;20024;-49
2021/05/03 12:54:34;;;;;;;1.50;1.38;;;19.20;32.90;;;;;;8385110;28;20111;-50
2021/05/03 12:58:47;;;;;;;1.65;1.40;;;19.20;32.90;;;;;;8390870;28;20052;-48
2021/05/03 13:03:05;;;;;;;1.90;1.55;;;19.20;32.90;;;;;;8391014;28;20036;-47
2021/05/03 13:11:53;;;;;;;2.08;1.40;;;19.20;32.90;;;;;;8395364;28;20033;-47
2021/05/03 13:25:05;;;;;;;1.93;1.43;;;19.20;32.90;;;;;;8389363;28;20047;-46
2021/05/03 13:29:15;;;;;;;2.42;1.45;;;19.20;32.90;;;;;;8390132;28;20278;-48
2021/05/03 13:33:15;;;;;;;1.95;1.58;;;19.20;32.90;;;;;;8389226;28;20036;-47
2021/05/03 13:37:17;;;;;;;2.23;1.40;;;19.20;32.80;;;;;;8395059;28;20047;-48
2021/05/03 13:41:18;;;;;;;1.95;1.38;;;19.20;32.90;;;;;;8390277;28;20033;-47
2021/05/03 13:45:21;;;;;;;1.60;1.50;;;19.20;32.80;;;;;;8368656;28;20129;-48
2021/05/03 13:49:22;;;;;;;2.30;1.70;;;19.20;32.80;;;;;;8368018;28;20380;-49
2021/05/03 13:53:22;;;;;;;2.03;1.60;;;19.20;32.80;;;;;;8391249;28;20197;-47
2021/05/03 13:57:23;;;;;;;1.50;1.40;;;19.20;32.70;;;;;;8395189;28;20040;-46
2021/05/03 14:01:23;;;;;;;2.00;1.70;;;19.20;32.80;;;;;;8396077;28;20041;-48
2021/05/03 14:05:24;;;;;;;2.60;1.40;;;19.20;32.80;;;;;;8395129;28;20446;-48
2021/05/03 14:09:25;;;;;;;1.60;1.50;;;19.20;32.70;;;;;;8393258;28;20033;-49
2021/05/03 14:13:25;;;;;;;2.23;1.73;;;19.20;32.70;;;;;;8400593;28;20059;-46
2021/05/03 14:17:26;;;;;;;2.13;1.60;;;19.20;32.70;;;;;;8395776;28;20759;-47
2021/05/03 14:21:26;;;;;;;3.10;1.73;;;19.30;32.80;;;;;;8393931;28;20044;-50
2021/05/03 14:25:30;;;;;;;1.87;1.40;;;19.30;32.80;;;;;;8397115;28;20040;-47
2021/05/03 14:29:45;;;;;;;1.40;1.30;;;19.20;32.70;;;;;;8381734;28;20033;-46
2021/05/03 14:38:04;;;;;;;2.88;1.85;;;19.30;32.80;;;;;;8370500;28;20512;-48
2021/05/03 14:42:05;;;;;;;1.60;1.30;;;19.30;32.70;;;;;;8380617;28;20040;-46
2021/05/03 14:46:16;;;;;;;1.47;1.37;;;19.30;33.30;;;;;;8395791;28;20071;-45
2021/05/03 14:50:27;;;;;;;1.73;1.50;;;19.30;32.70;;;;;;8399092;28;20033;-47
2021/05/03 14:54:39;;;;;;;1.30;1.20;;;19.30;32.70;;;;;;8393344;28;20461;-46
2021/05/03 14:58:39;;;;;;;2.17;1.80;;;19.40;32.70;;;;;;8394363;28;20136;-47
2021/05/03 15:02:40;;;;;;;3.53;2.13;;;19.40;32.60;;;;;;8379995;28;20078;-49
2021/05/03 15:06:42;;;;;;;1.57;1.47;;;19.40;32.60;;;;;;8364017;28;20037;-49
2021/05/03 15:10:43;;;;;;;1.63;1.33;;;19.40;32.60;;;;;;8398251;28;20072;-50
2021/05/03 15:23:09;;;;;;;1.80;1.52;;;19.40;32.50;;;;;;8393972;28;20059;-47
2021/05/03 15:27:28;;;;;;;2.07;1.60;;;19.40;32.50;;;;;;8391198;28;20037;-48
2021/05/03 15:31:51;;;;;;;1.55;1.33;;;19.40;32.50;;;;;;8397877;28;20029;-48
2021/05/03 15:35:51;;;;;;;1.20;1.10;;;19.40;32.50;;;;;;8393168;28;20076;-47
2021/05/03 15:39:52;;;;;;;1.23;1.13;;;19.40;32.50;;;;;;8366500;28;20389;-48
2021/05/03 15:43:54;;;;;;;1.50;1.40;;;19.40;32.40;;;;;;8377677;28;20021;-50
2021/05/03 15:47:54;;;;;;;1.40;1.17;;;19.40;32.40;;;;;;8384143;28;20028;-47
2021/05/03 15:51:55;;;;;;;1.97;1.70;;;19.40;32.40;;;;;;8395475;28;20131;-48
2021/05/03 15:55:57;;;;;;;1.60;1.40;;;19.40;32.40;;;;;;8391919;28;20051;-47
2021/05/03 15:59:57;;;;;;;1.55;1.27;;;19.40;32.40;;;;;;8392672;28;20539;-48
2021/05/03 16:04:00;;;;;;;1.53;1.33;;;19.40;32.40;;;;;;8390870;28;20032;-49
2021/05/03 16:08:00;;;;;;;1.85;1.42;;;19.50;32.50;;;;;;8396321;28;20507;-46
2021/05/03 16:12:01;;;;;;;1.50;1.40;;;19.40;32.30;;;;;;8390488;28;20041;-49
2021/05/03 16:16:03;;;;;;;1.40;1.30;;;19.40;32.40;;;;;;8373835;28;20095;-50
2021/05/03 16:20:04;;;;;;;1.35;1.25;;;19.40;32.40;;;;;;8367967;28;20040;-49
2021/05/03 16:24:05;;;;;;;1.42;1.33;;;19.40;32.30;;;;;;8394482;28;20040;-48
2021/05/03 16:28:06;;;;;;;1.63;1.40;;;19.40;32.40;;;;;;8393535;28;20364;-48
2021/05/03 16:32:06;;;;;;;1.60;1.50;;;19.40;32.30;;;;;;8391547;28;20043;-51
2021/05/03 16:36:07;;;;;;;1.43;1.30;;;19.40;32.40;;;;;;8389565;28;20071;-48
2021/05/03 16:40:08;;;;;;;5.90;1.77;;;19.40;32.40;;;;;;8391273;28;20393;-50
2021/05/03 16:44:09;;;;;;;1.63;1.30;;;19.40;32.30;;;;;;8395748;28;20021;-47
2021/05/03 16:48:09;;;;;;;1.70;1.50;;;19.40;32.30;;;;;;8389632;28;20037;-47
2021/05/03 16:52:10;;;;;;;1.73;1.43;;;19.40;32.90;;;;;;8391349;28;20043;-51
2021/05/03 16:56:15;;;;;;;2.07;1.70;;;19.40;32.30;;;;;;8391032;28;20040;-48
2021/05/03 17:00:16;;;;;;;1.85;1.35;;;19.40;32.30;;;;;;8394077;28;20279;-48
2021/05/03 17:04:17;;;;;;;1.67;1.58;;;19.40;32.30;;;;;;8391024;28;20047;-48
2021/05/03 17:08:18;;;;;;;1.48;1.38;;;19.40;32.30;;;;;;8370265;28;20072;-52
2021/05/03 17:12:20;;;;;;;1.80;1.45;;;19.40;32.30;;;;;;8368016;28;20028;-47
2021/05/03 17:16:21;;;;;;;1.23;1.13;;;19.40;32.30;;;;;;8391014;28;20050;-47
2021/05/03 17:20:22;;;;;;;2.00;1.20;;;19.40;32.30;;;;;;8395040;28;20044;-50
2021/05/03 17:24:22;;;;;;;2.17;1.50;;;19.40;32.30;;;;;;8389153;28;20106;-48
2021/05/03 17:28:23;;;;;;;1.60;1.43;;;19.40;32.30;;;;;;8385865;28;20666;-47
2021/05/03 17:32:23;;;;;;;1.40;1.30;;;19.40;32.30;;;;;;8390311;28;20028;-48
2021/05/03 17:36:24;;;;;;;1.40;1.30;;;19.40;32.30;;;;;;8399802;28;20036;-47
2021/05/03 17:40:25;;;;;;;1.40;1.17;;;19.40;32.30;;;;;;8394088;28;20086;-47
2021/05/03 17:44:26;;;;;;;2.05;1.42;;;19.40;32.30;;;;;;8393225;28;20036;-46
2021/05/03 17:48:26;;;;;;;1.50;1.37;;;19.40;32.30;;;;;;8393836;28;20393;-48
2021/05/03 17:52:27;;;;;;;1.40;1.30;;;19.40;32.30;;;;;;8401268;28;20507;-49
2021/05/03 17:56:27;;;;;;;1.23;1.10;;;19.40;32.30;;;;;;8364671;28;20044;-47
2021/05/03 18:00:33;;;;;;;1.60;1.50;;;19.40;32.30;;;;;;8339127;27;20033;-46
2021/05/03 18:04:33;;;;;;;2.05;1.40;;;19.40;32.30;;;;;;8333384;28;20482;-48
2021/05/03 18:08:35;;;;;;;1.47;1.33;;;19.40;32.30;;;;;;8355312;28;20098;-46
2021/05/03 18:12:35;;;;;;;1.95;1.58;;;19.40;32.30;;;;;;8398857;28;20056;-46
2021/05/03 18:16:36;;;;;;;2.33;1.53;;;19.40;32.30;;;;;;8396110;28;20041;-45
2021/05/03 18:20:41;;;;;;;1.50;1.40;;;19.40;32.40;;;;;;8394643;28;20047;-47
2021/05/03 18:24:42;;;;;;;1.98;1.30;;;19.40;32.40;;;;;;8394124;28;20044;-46
2021/05/03 18:28:46;;;;;;;1.95;1.40;;;19.30;32.40;;;;;;8399815;28;20556;-45
2021/05/03 18:32:48;;;;;;;2.10;1.40;;;19.30;32.40;;;;;;8395450;28;20032;-47
2021/05/03 18:36:49;;;;;;;1.67;1.40;;;19.30;32.40;;;;;;8377631;28;20060;-48
2021/05/03 18:40:49;;;;;;;1.37;1.20;;;19.30;32.50;;;;;;8374942;28;20127;-48
2021/05/03 18:44:51;;;;;;;2.70;1.60;;;19.30;32.50;;;;;;8394746;28;20413;-48
2021/05/03 18:48:51;;;;;;;1.65;1.33;;;19.30;32.50;;;;;;8397786;28;20039;-46
2021/05/03 18:52:52;;;;;;;1.73;1.60;;;19.30;32.60;;;;;;8394690;28;20036;-45
2021/05/03 18:56:52;;;;;;;1.80;1.47;;;19.30;32.50;;;;;;8364655;28;20107;-47
2021/05/03 19:00:53;;;;;;;1.90;1.63;;;19.30;32.50;;;;;;8391923;28;20024;-47
2021/05/03 19:04:54;;;;;;;1.67;1.27;;;19.30;32.50;;;;;;8399014;28;20021;-46
2021/05/03 19:08:54;;;;;;;1.93;1.63;;;19.30;32.50;;;;;;8394291;28;20037;-50
2021/05/03 19:12:55;;;;;;;1.83;1.53;;;19.30;32.60;;;;;;8387674;28;20116;-47
2021/05/03 19:16:56;;;;;;;1.80;1.40;;;19.30;32.60;;;;;;8373187;28;20051;-49
2021/05/03 19:20:57;;;;;;;1.42;1.27;;;19.30;32.60;;;;;;8387026;28;20043;-48
2021/05/03 19:24:58;;;;;;;1.77;1.30;;;19.30;32.60;;;;;;8394231;28;20045;-48
2021/05/03 19:28:58;;;;;;;1.33;1.23;;;19.30;32.60;;;;;;8393770;28;20029;-48
2021/05/03 19:32:59;;;;;;;2.10;1.43;;;19.30;32.60;;;;;;8380685;28;20044;-48
2021/05/03 19:37:00;;;;;;;2.87;1.43;;;19.20;32.60;;;;;;8362360;27;20172;-47
2021/05/03 19:41:01;;;;;;;2.08;1.80;;;19.20;32.60;;;;;;8397763;28;20036;-48
2021/05/03 19:45:02;;;;;;;2.07;1.83;;;19.20;32.60;;;;;;8391402;28;20045;-48
2021/05/03 19:49:07;;;;;;;2.92;1.50;;;19.30;32.60;;;;;;8391799;28;20496;-48
2021/05/03 20:05:49;;;;;;;2.35;1.48;;;19.20;32.60;;;;;;8386716;28;20063;-47
2021/05/03 20:09:50;;;;;;;1.73;1.40;;;19.20;32.60;;;;;;8391131;28;20394;-48
2021/05/03 20:13:52;;;;;;;2.27;1.83;;;19.20;32.60;;;;;;8392393;28;20366;-49
2021/05/03 20:17:52;;;;;;;2.03;1.88;;;19.20;32.60;;;;;;8396177;28;20048;-50
2021/05/03 20:21:53;;;;;;;1.60;1.50;;;19.20;32.60;;;;;;8389651;28;20429;-49
2021/05/03 20:25:54;;;;;;;1.50;1.40;;;19.20;32.60;;;;;;8390493;28;20037;-48
2021/05/03 20:29:54;;;;;;;2.37;1.63;;;19.20;32.60;;;;;;8390602;28;20032;-50
2021/05/03 20:34:11;;;;;;;2.50;1.50;;;19.20;32.60;;;;;;8388767;28;20029;-50
2021/05/03 20:42:24;;;;;;;2.00;1.60;;;19.20;32.60;;;;;;8387860;28;20033;-50
2021/05/03 20:46:24;;;;;;;1.60;1.30;;;19.20;32.60;;;;;;8390228;28;20032;-50
2021/05/03 20:50:25;;;;;;;2.23;1.77;;;19.20;32.60;;;;;;8370193;28;20048;-51
2021/05/03 20:54:25;;;;;;;1.90;1.70;;;19.20;32.60;;;;;;8359823;28;20021;-48
2021/05/03 20:58:28;;;;;;;3.27;1.47;;;19.20;32.60;;;;;;8368586;28;20091;-48
2021/05/03 21:02:28;;;;;;;2.10;1.60;;;19.20;32.60;;;;;;8389767;28;20033;-48
2021/05/03 21:06:29;;;;;;;2.07;1.43;;;19.10;32.50;;;;;;8386722;28;20040;-48
2021/05/03 21:10:32;;;;;;;2.83;1.87;;;19.10;32.50;;;;;;8389518;28;20049;-52
2021/05/03 21:14:32;;;;;;;1.80;1.60;;;19.10;32.50;;;;;;8393818;28;20036;-47
2021/05/03 21:18:33;;;;;;;2.27;1.80;;;19.10;32.60;;;;;;8369220;28;544592;-47
2021/05/03 21:22:35;;;;;;;1.53;1.43;;;19.10;32.50;;;;;;8390795;28;20040;-48
2021/05/03 21:26:36;;;;;;;2.58;1.85;;;19.10;32.60;;;;;;8390570;28;20440;-48
2021/05/03 21:30:38;;;;;;;2.22;1.90;;;19.10;32.60;;;;;;8393568;28;20473;-49
2021/05/03 21:34:39;;;;;;;2.47;1.60;;;19.10;32.50;;;;;;8389998;28;20051;-48
2021/05/03 21:38:39;;;;;;;2.00;1.47;;;19.10;32.50;;;;;;8390618;28;20389;-46
2021/05/03 21:42:40;;;;;;;3.40;1.63;;;19.10;32.60;;;;;;8388782;28;20028;-47
2021/05/03 21:46:40;;;;;;;1.83;1.60;;;19.10;32.60;;;;;;8390441;28;20044;-47
2021/05/03 21:50:41;;;;;;;2.27;1.90;;;19.00;32.50;;;;;;8394969;28;20056;-47
2021/05/03 21:54:41;;;;;;;1.97;1.70;;;19.00;32.50;;;;;;8388999;28;20082;-46
2021/05/03 21:58:43;;;;;;;1.83;1.60;;;19.00;32.50;;;;;;8376873;28;20559;-46
2021/05/03 22:02:43;;;;;;;1.60;1.48;;;19.00;32.50;;;;;;8371362;27;20032;-46
2021/05/03 22:06:45;;;;;;;2.83;1.83;;;19.00;32.60;;;;;;8392774;28;20442;-50
2021/05/03 22:10:45;;;;;;;2.28;1.77;;;19.00;32.60;;;;;;8389870;28;20507;-48
2021/05/03 22:14:50;;;;;;;2.50;1.67;;;18.90;32.70;;;;;;8389616;28;20040;-46
2021/05/03 22:18:59;;;;;;;2.15;1.77;;;19.00;32.60;;;;;;8392171;28;20040;-47
2021/05/03 22:23:41;;;;;;;1.55;1.40;;;18.90;33.10;;;;;;8397812;28;20032;-47